Time;durP1;ratioP1;P1;durP2;ratioP2;P2;SDS_P1;SDS_P2;PMS_P1;PMS_P2;Temp;Humidity;BMP_temperature;BMP_pressure;BME280_temperature;BME280_humidity;BME280_pressure;Samples;Min_cycle;Max_cycle;Signal;HPM_P1;HPM_P2
2021/05/28 00:01:54;;;;;;;4.95;2.53;;;16.30;68.10;;;;;;6321133;22;20007;-74
2021/05/28 00:04:20;;;;;;;3.97;2.60;;;16.30;68.10;;;;;;6321280;22;20014;-75
2021/05/28 00:06:46;;;;;;;5.28;2.67;;;16.30;68.10;;;;;;6321025;22;20078;-74
2021/05/28 00:09:12;;;;;;;6.05;2.17;;;16.30;68.10;;;;;;6310783;22;20038;-75
2021/05/28 00:11:39;;;;;;;5.00;2.63;;;16.30;68.10;;;;;;6320854;22;20446;-75
2021/05/28 00:14:06;;;;;;;6.15;2.47;;;16.30;68.10;;;;;;6321026;22;20015;-76
2021/05/28 00:16:31;;;;;;;4.85;2.38;;;16.30;68.10;;;;;;6321100;22;20015;-75
2021/05/28 00:19:12;;;;;;;5.13;2.80;;;16.40;68.20;;;;;;6287498;22;20292;-75
2021/05/28 00:21:38;;;;;;;5.68;2.83;;;16.30;68.20;;;;;;6320857;22;20007;-75
2021/05/28 00:24:05;;;;;;;4.88;2.40;;;16.30;68.10;;;;;;6320682;22;20087;-76
2021/05/28 00:26:31;;;;;;;5.72;2.92;;;16.30;68.10;;;;;;6320923;22;20034;-74
2021/05/28 00:28:57;;;;;;;5.25;2.55;;;16.30;68.10;;;;;;6293818;22;20012;-75
2021/05/28 00:31:24;;;;;;;5.45;2.47;;;16.30;68.10;;;;;;6320604;22;20003;-74
2021/05/28 00:33:50;;;;;;;5.35;2.97;;;16.30;68.10;;;;;;6321111;22;20420;-74
2021/05/28 00:36:18;;;;;;;4.25;2.40;;;16.30;68.20;;;;;;6320552;22;20007;-75
2021/05/28 00:38:44;;;;;;;5.78;2.92;;;16.30;68.20;;;;;;6320661;22;20277;-74
2021/05/28 00:41:12;;;;;;;4.95;3.03;;;16.30;68.20;;;;;;6320762;22;20007;-75
2021/05/28 00:43:38;;;;;;;4.15;2.38;;;16.30;68.10;;;;;;6320916;22;20033;-75
2021/05/28 00:46:04;;;;;;;4.82;2.88;;;16.30;68.10;;;;;;6320740;22;20019;-75
2021/05/28 00:48:30;;;;;;;5.45;2.38;;;16.30;68.10;;;;;;6312594;22;20312;-74
2021/05/28 00:50:56;;;;;;;4.47;2.67;;;16.30;68.10;;;;;;6320722;22;20011;-75
2021/05/28 00:53:23;;;;;;;3.50;2.47;;;16.30;68.10;;;;;;6310130;22;20046;-74
2021/05/28 00:55:49;;;;;;;4.53;2.47;;;16.30;68.10;;;;;;6320886;22;20129;-76
2021/05/28 00:58:17;;;;;;;4.40;2.40;;;16.30;68.10;;;;;;6321401;22;20416;-74
2021/05/28 01:00:43;;;;;;;3.75;2.30;;;16.30;68.10;;;;;;6320246;22;20379;-75
2021/05/28 01:03:09;;;;;;;5.45;2.47;;;16.30;68.10;;;;;;6320481;22;20007;-75
2021/05/28 01:05:35;;;;;;;4.85;2.70;;;16.30;68.10;;;;;;6320571;22;20007;-75
2021/05/28 01:08:01;;;;;;;3.78;2.55;;;16.30;68.00;;;;;;6320780;22;20013;-75
2021/05/28 01:10:27;;;;;;;4.78;2.67;;;16.30;68.00;;;;;;6320450;22;20412;-75
2021/05/28 01:13:04;;;;;;;3.97;2.42;;;16.20;68.00;;;;;;6309906;22;20025;-74
2021/05/28 01:15:31;;;;;;;4.07;2.42;;;16.30;67.90;;;;;;6320293;22;20007;-75
2021/05/28 01:17:58;;;;;;;6.75;2.95;;;16.20;67.90;;;;;;6320182;22;20330;-74
2021/05/28 01:20:24;;;;;;;4.35;2.42;;;16.30;67.90;;;;;;6320863;22;20394;-73
2021/05/28 01:22:52;;;;;;;3.40;2.45;;;16.20;67.90;;;;;;6319916;22;20022;-75
2021/05/28 01:25:19;;;;;;;3.85;2.50;;;16.20;67.90;;;;;;6320646;22;20035;-75
2021/05/28 01:27:45;;;;;;;3.63;2.30;;;16.20;67.90;;;;;;6320356;22;20110;-75
2021/05/28 01:30:12;;;;;;;4.85;2.80;;;16.20;67.90;;;;;;6310102;22;20098;-75
2021/05/28 01:32:38;;;;;;;4.78;2.65;;;16.20;67.90;;;;;;6319805;22;20011;-75
2021/05/28 01:35:04;;;;;;;4.28;2.45;;;16.20;67.90;;;;;;6320362;22;20011;-74
2021/05/28 01:37:30;;;;;;;5.43;2.55;;;16.20;67.90;;;;;;6320793;22;20007;-74
2021/05/28 01:39:57;;;;;;;5.00;2.45;;;16.20;67.90;;;;;;6320803;22;20007;-75
2021/05/28 01:42:23;;;;;;;4.55;2.90;;;16.20;67.90;;;;;;6319448;22;20144;-74
2021/05/28 01:44:49;;;;;;;5.00;2.72;;;16.20;67.90;;;;;;6320091;22;20011;-74
2021/05/28 01:47:15;;;;;;;4.40;2.33;;;16.20;67.90;;;;;;6290824;22;20088;-75
2021/05/28 01:49:41;;;;;;;4.57;2.67;;;16.20;67.90;;;;;;6320659;22;20404;-75
2021/05/28 01:52:11;;;;;;;4.25;2.42;;;16.20;67.90;;;;;;6319269;22;20012;-76
2021/05/28 01:54:39;;;;;;;3.78;2.67;;;16.20;67.90;;;;;;6320363;22;20064;-74
2021/05/28 01:57:05;;;;;;;5.20;2.83;;;16.20;67.90;;;;;;6320058;22;20445;-76
2021/05/28 01:59:31;;;;;;;5.72;2.55;;;16.20;67.90;;;;;;6320742;22;20015;-74
2021/05/28 02:01:57;;;;;;;4.70;2.58;;;16.20;67.90;;;;;;6319389;22;20030;-76
2021/05/28 02:04:24;;;;;;;5.65;2.85;;;16.20;68.00;;;;;;6320954;22;20030;-77
2021/05/28 02:06:51;;;;;;;5.00;2.75;;;16.20;68.00;;;;;;6321312;22;20007;-75
2021/05/28 02:09:17;;;;;;;4.47;2.53;;;16.20;68.00;;;;;;6283125;22;20011;-75
2021/05/28 02:11:43;;;;;;;4.85;2.78;;;16.20;67.90;;;;;;6319646;22;20408;-75
2021/05/28 02:14:09;;;;;;;4.20;2.67;;;16.20;68.00;;;;;;6319827;22;20073;-74
2021/05/28 02:16:36;;;;;;;4.63;2.50;;;16.20;68.00;;;;;;6320140;22;20038;-76
2021/05/28 02:19:02;;;;;;;5.10;2.50;;;16.10;67.90;;;;;;6310677;22;20296;-75
2021/05/28 02:21:29;;;;;;;4.65;2.85;;;16.20;68.00;;;;;;6320481;22;20041;-76
2021/05/28 02:23:55;;;;;;;5.53;2.70;;;16.10;67.90;;;;;;6320023;22;20330;-76
2021/05/28 02:26:21;;;;;;;5.65;3.08;;;16.10;67.90;;;;;;6309125;22;20328;-76
2021/05/28 02:28:47;;;;;;;5.45;2.58;;;16.10;67.90;;;;;;6309730;22;20018;-74
2021/05/28 02:31:13;;;;;;;4.47;2.60;;;16.10;67.90;;;;;;6320550;22;20069;-75
2021/05/28 02:33:39;;;;;;;4.50;2.30;;;16.10;68.00;;;;;;6309272;22;20026;-74
2021/05/28 02:36:06;;;;;;;3.70;2.80;;;16.10;68.00;;;;;;6320196;22;20041;-76
2021/05/28 02:38:33;;;;;;;3.92;2.47;;;16.10;68.00;;;;;;6292909;22;20068;-75
2021/05/28 02:40:59;;;;;;;3.97;2.30;;;16.10;68.00;;;;;;6320730;22;20022;-74
2021/05/28 02:43:25;;;;;;;3.95;2.33;;;16.10;68.00;;;;;;6319878;22;20015;-74
2021/05/28 02:45:52;;;;;;;5.25;2.85;;;16.10;67.90;;;;;;6320581;22;20187;-76
2021/05/28 02:48:19;;;;;;;6.25;2.47;;;16.10;68.00;;;;;;6313241;22;20081;-76
2021/05/28 02:50:45;;;;;;;3.88;2.50;;;16.10;67.90;;;;;;6319434;22;20043;-74
2021/05/28 02:53:11;;;;;;;4.70;2.28;;;16.10;67.80;;;;;;6319612;22;20307;-75
2021/05/28 02:55:38;;;;;;;5.75;2.50;;;16.10;67.80;;;;;;6320157;22;20082;-74
2021/05/28 02:58:05;;;;;;;4.90;2.90;;;16.10;67.70;;;;;;6319866;22;20025;-75
2021/05/28 03:00:31;;;;;;;4.97;2.80;;;16.00;67.60;;;;;;6309587;22;20023;-74
2021/05/28 03:02:57;;;;;;;6.32;2.75;;;16.00;68.00;;;;;;6321357;22;20010;-74
2021/05/28 03:05:24;;;;;;;4.63;2.75;;;16.00;67.70;;;;;;6322252;22;20013;-73
2021/05/28 03:07:49;;;;;;;3.80;2.60;;;16.00;67.80;;;;;;6321927;22;20086;-75
2021/05/28 03:10:16;;;;;;;5.38;2.60;;;16.00;67.90;;;;;;6321965;22;20348;-75
2021/05/28 03:12:42;;;;;;;5.68;2.72;;;16.00;67.90;;;;;;6321066;22;20076;-74
2021/05/28 03:15:10;;;;;;;4.05;2.50;;;15.90;67.90;;;;;;6321933;22;20011;-73
2021/05/28 03:17:36;;;;;;;4.43;2.65;;;15.90;68.00;;;;;;6321734;22;20023;-74
2021/05/28 03:20:05;;;;;;;3.72;2.58;;;15.90;68.00;;;;;;6321733;22;20284;-75
2021/05/28 03:22:32;;;;;;;4.65;2.60;;;15.90;68.00;;;;;;6321185;22;20026;-74
2021/05/28 03:25:04;;;;;;;4.47;2.97;;;15.90;68.00;;;;;;6311408;22;20018;-76
2021/05/28 03:27:30;;;;;;;5.28;2.70;;;15.90;68.00;;;;;;6311141;22;20049;-75
2021/05/28 03:29:55;;;;;;;3.70;2.38;;;15.90;68.00;;;;;;6322182;22;20015;-75
2021/05/28 03:32:21;;;;;;;3.95;2.85;;;15.90;68.00;;;;;;6321293;22;20038;-75
2021/05/28 03:34:47;;;;;;;3.20;2.17;;;15.80;68.00;;;;;;6311164;22;20011;-75
2021/05/28 03:37:14;;;;;;;5.35;2.83;;;15.80;68.00;;;;;;6321704;22;20011;-74
2021/05/28 03:39:40;;;;;;;5.55;2.30;;;15.80;68.00;;;;;;6321240;22;20027;-76
2021/05/28 03:42:05;;;;;;;5.22;2.25;;;15.80;68.00;;;;;;6321164;22;20426;-74
2021/05/28 03:44:31;;;;;;;4.20;2.45;;;15.80;67.90;;;;;;6322068;22;20042;-76
2021/05/28 03:46:57;;;;;;;5.05;2.75;;;15.80;68.00;;;;;;6294222;22;20018;-75
2021/05/28 03:49:23;;;;;;;4.97;2.30;;;15.80;68.00;;;;;;6321732;22;20007;-75
2021/05/28 03:51:49;;;;;;;4.57;2.53;;;15.80;68.00;;;;;;6321314;22;20091;-74
2021/05/28 03:54:15;;;;;;;5.55;2.42;;;15.80;68.00;;;;;;6321084;22;20086;-74
2021/05/28 03:56:41;;;;;;;4.18;2.30;;;15.80;68.00;;;;;;6321957;22;20092;-75
2021/05/28 03:59:06;;;;;;;5.30;2.90;;;15.80;67.90;;;;;;6294326;22;20015;-75
2021/05/28 04:01:32;;;;;;;6.20;2.50;;;15.80;68.00;;;;;;6310860;22;20011;-74
2021/05/28 04:03:58;;;;;;;4.97;2.05;;;15.80;67.90;;;;;;6321318;22;20007;-74
2021/05/28 04:06:24;;;;;;;4.00;2.17;;;15.80;67.90;;;;;;6321131;22;20076;-74
2021/05/28 04:08:50;;;;;;;4.82;2.53;;;15.80;67.90;;;;;;6321692;22;20058;-74
2021/05/28 04:11:16;;;;;;;3.90;2.25;;;15.80;67.90;;;;;;6320205;22;20008;-77
2021/05/28 04:13:41;;;;;;;5.43;2.45;;;15.80;67.90;;;;;;6320379;22;20291;-74
2021/05/28 04:16:07;;;;;;;4.85;2.72;;;15.80;67.90;;;;;;6321216;22;20077;-76
2021/05/28 04:18:33;;;;;;;4.25;2.35;;;15.70;67.80;;;;;;6311041;22;20090;-74
2021/05/28 04:20:59;;;;;;;4.22;1.90;;;15.80;67.80;;;;;;6320412;22;20042;-74
2021/05/28 04:23:25;;;;;;;6.40;2.08;;;15.80;67.80;;;;;;6321805;22;20011;-82
2021/05/28 04:25:51;;;;;;;6.10;2.28;;;15.80;67.80;;;;;;6293203;22;20015;-74
2021/05/28 04:28:17;;;;;;;4.32;2.00;;;15.80;67.80;;;;;;6316563;22;20023;-77
2021/05/28 04:30:44;;;;;;;5.50;2.30;;;15.80;67.70;;;;;;6320108;22;20011;-75
2021/05/28 04:33:12;;;;;;;6.32;2.22;;;15.80;67.80;;;;;;6320816;22;20045;-81
2021/05/28 04:35:38;;;;;;;5.22;2.10;;;15.80;67.70;;;;;;6320664;22;20007;-77
2021/05/28 04:38:08;;;;;;;5.43;2.45;;;15.80;67.80;;;;;;6319523;22;20048;-83
2021/05/28 04:40:34;;;;;;;4.85;2.40;;;15.80;67.80;;;;;;6255774;22;20010;-78
2021/05/28 04:43:00;;;;;;;6.55;3.00;;;15.80;67.90;;;;;;6283162;22;20007;-77
2021/05/28 04:45:29;;;;;;;5.65;2.80;;;15.80;67.80;;;;;;6319786;22;20011;-78
2021/05/28 04:47:55;;;;;;;5.15;2.75;;;15.80;67.50;;;;;;6314571;22;20479;-76
2021/05/28 04:50:22;;;;;;;9.13;3.85;;;15.80;67.40;;;;;;6320180;22;20015;-77
2021/05/28 04:52:47;;;;;;;7.20;3.33;;;15.90;67.20;;;;;;6309755;22;20011;-77
2021/05/28 04:55:14;;;;;;;5.65;3.10;;;15.80;67.00;;;;;;6318864;22;20011;-76
2021/05/28 04:57:45;;;;;;;8.48;3.35;;;15.80;66.90;;;;;;6309556;22;20420;-73
2021/05/28 05:00:11;;;;;;;8.02;3.88;;;15.80;66.80;;;;;;6294134;22;20003;-80
2021/05/28 05:02:37;;;;;;;9.65;3.78;;;15.80;67.40;;;;;;6320057;22;20011;-75
2021/05/28 05:05:03;;;;;;;7.00;3.92;;;15.70;66.70;;;;;;6309992;22;20007;-79
2021/05/28 05:07:29;;;;;;;8.00;3.45;;;15.70;66.90;;;;;;6320347;22;20090;-78
2021/05/28 05:09:55;;;;;;;8.05;3.13;;;15.70;68.00;;;;;;6283169;22;20393;-77
2021/05/28 05:12:21;;;;;;;7.80;3.22;;;15.70;67.80;;;;;;6320116;22;20481;-77
2021/05/28 05:14:53;;;;;;;10.20;3.47;;;15.70;68.20;;;;;;6318850;22;20025;-75
2021/05/28 05:17:19;;;;;;;10.90;3.83;;;15.70;68.80;;;;;;6309492;22;20073;-80
2021/05/28 05:19:45;;;;;;;7.78;2.97;;;15.80;69.00;;;;;;6319597;22;20007;-78
2021/05/28 05:22:11;;;;;;;7.20;3.40;;;15.80;68.80;;;;;;6319790;22;20108;-78
2021/05/28 05:24:36;;;;;;;6.97;3.45;;;15.80;68.40;;;;;;6309847;22;20128;-81
2021/05/28 05:27:02;;;;;;;7.63;3.40;;;15.80;68.00;;;;;;6318575;22;20022;-78
2021/05/28 05:29:31;;;;;;;8.73;3.22;;;15.80;67.70;;;;;;6319575;22;20018;-79
2021/05/28 05:31:57;;;;;;;8.32;3.35;;;15.80;67.50;;;;;;6320104;22;20034;-77
2021/05/28 05:34:24;;;;;;;11.90;3.78;;;15.80;67.40;;;;;;6319882;22;20014;-79
2021/05/28 05:36:50;;;;;;;11.15;3.70;;;15.80;67.50;;;;;;6282521;22;20274;-78
2021/05/28 05:39:17;;;;;;;11.23;3.78;;;15.80;68.10;;;;;;6309870;22;20076;-75
2021/05/28 05:41:43;;;;;;;8.48;3.45;;;15.80;67.90;;;;;;6320113;22;20007;-75
2021/05/28 05:44:08;;;;;;;6.00;3.35;;;15.80;67.60;;;;;;6320425;22;20447;-77
2021/05/28 05:46:34;;;;;;;10.68;3.53;;;15.80;67.40;;;;;;6293176;22;20038;-76
2021/05/28 05:49:00;;;;;;;7.07;3.63;;;15.80;67.30;;;;;;6310980;22;20346;-76
2021/05/28 05:51:26;;;;;;;6.55;3.08;;;15.70;67.20;;;;;;6319704;22;20455;-78
2021/05/28 05:53:52;;;;;;;7.45;3.25;;;15.70;67.10;;;;;;6320848;22;20007;-76
2021/05/28 05:56:24;;;;;;;8.35;3.50;;;15.80;67.10;;;;;;6310075;22;20078;-78
2021/05/28 05:58:50;;;;;;;9.50;3.97;;;15.80;67.00;;;;;;6319764;22;20086;-79
2021/05/28 06:01:16;;;;;;;8.05;4.10;;;15.80;67.00;;;;;;6319905;22;20034;-78
2021/05/28 06:03:45;;;;;;;8.05;2.78;;;15.80;67.00;;;;;;6319812;22;20031;-79
2021/05/28 06:06:11;;;;;;;7.18;3.63;;;15.80;67.00;;;;;;6320370;22;20018;-78
2021/05/28 06:08:37;;;;;;;12.88;3.70;;;15.80;67.00;;;;;;6309490;22;20007;-79
2021/05/28 06:11:03;;;;;;;10.45;4.03;;;15.80;67.00;;;;;;6318900;22;20018;-78
2021/05/28 06:13:32;;;;;;;14.77;4.55;;;15.80;66.80;;;;;;6309781;22;20022;-80
2021/05/28 06:15:58;;;;;;;14.30;4.43;;;15.80;66.80;;;;;;6309841;22;20008;-75
2021/05/28 06:18:24;;;;;;;13.02;3.97;;;15.90;67.00;;;;;;6320732;22;20458;-75
2021/05/28 06:20:50;;;;;;;11.43;3.60;;;15.80;67.00;;;;;;6320121;22;20065;-76
2021/05/28 06:23:16;;;;;;;11.93;3.65;;;15.90;67.00;;;;;;6309651;22;20022;-77
2021/05/28 06:25:42;;;;;;;9.13;4.15;;;16.00;67.10;;;;;;6319726;22;20098;-75
2021/05/28 06:28:09;;;;;;;8.85;3.30;;;16.00;67.10;;;;;;6320075;22;20041;-76
2021/05/28 06:30:35;;;;;;;9.73;3.55;;;16.00;67.20;;;;;;6319843;22;20049;-75
2021/05/28 06:33:03;;;;;;;7.28;3.15;;;16.00;67.20;;;;;;6293140;22;20091;-74
2021/05/28 06:35:29;;;;;;;19.38;4.43;;;16.10;67.30;;;;;;6320997;22;20018;-76
2021/05/28 06:37:55;;;;;;;13.07;3.78;;;16.10;67.40;;;;;;6321825;22;20015;-76
2021/05/28 06:40:21;;;;;;;7.15;2.65;;;16.10;67.40;;;;;;6322051;22;20025;-75
2021/05/28 06:42:47;;;;;;;6.78;3.08;;;16.10;67.40;;;;;;6322383;22;20007;-76
2021/05/28 06:45:16;;;;;;;10.15;3.17;;;16.20;67.50;;;;;;6295849;22;20324;-77
2021/05/28 06:47:42;;;;;;;5.78;2.92;;;16.20;67.60;;;;;;6310991;22;20400;-75
2021/05/28 06:50:09;;;;;;;4.68;2.80;;;16.20;67.60;;;;;;6322240;22;20097;-76
2021/05/28 06:52:35;;;;;;;6.68;3.33;;;16.20;67.60;;;;;;6311299;22;20011;-75
2021/05/28 06:55:01;;;;;;;7.75;2.80;;;16.20;67.60;;;;;;6295089;22;20454;-75
2021/05/28 06:57:27;;;;;;;7.97;2.53;;;16.20;67.60;;;;;;6321993;22;20011;-74
2021/05/28 06:59:52;;;;;;;6.53;2.97;;;16.30;67.60;;;;;;6321436;22;20076;-75
2021/05/28 07:02:18;;;;;;;7.78;2.88;;;16.30;67.80;;;;;;6284072;22;20015;-80
2021/05/28 07:04:44;;;;;;;8.80;3.50;;;16.30;67.70;;;;;;6294535;22;20019;-80
2021/05/28 07:07:10;;;;;;;7.32;2.72;;;16.30;67.50;;;;;;6321659;22;20007;-80
2021/05/28 07:09:36;;;;;;;8.25;2.80;;;16.30;67.50;;;;;;6322253;22;20396;-81
2021/05/28 07:12:03;;;;;;;4.47;2.45;;;16.30;67.50;;;;;;6311201;22;20027;-79
2021/05/28 07:14:29;;;;;;;7.13;3.17;;;16.30;67.60;;;;;;6321173;22;20011;-80
2021/05/28 07:16:55;;;;;;;7.40;2.97;;;16.30;67.60;;;;;;6294240;22;20018;-77
2021/05/28 07:19:24;;;;;;;5.07;2.13;;;16.30;67.60;;;;;;6321578;22;20022;-77
2021/05/28 07:21:49;;;;;;;5.68;2.63;;;16.40;67.60;;;;;;6311335;22;20084;-74
2021/05/28 07:24:15;;;;;;;6.03;2.30;;;16.30;67.50;;;;;;6311066;22;20019;-75
2021/05/28 07:26:41;;;;;;;7.05;2.20;;;16.30;67.30;;;;;;6321358;22;20426;-74
2021/05/28 07:29:07;;;;;;;8.43;2.50;;;16.30;67.30;;;;;;6321441;22;20017;-74
2021/05/28 07:31:33;;;;;;;6.70;2.35;;;16.30;66.90;;;;;;6311119;22;20011;-74
2021/05/28 07:33:59;;;;;;;4.88;2.08;;;16.30;66.80;;;;;;6321965;22;20022;-74
2021/05/28 07:36:25;;;;;;;8.25;2.20;;;16.30;66.90;;;;;;6321519;22;20071;-75
2021/05/28 07:38:51;;;;;;;7.18;2.13;;;16.40;67.00;;;;;;6321063;22;20011;-75
2021/05/28 07:41:17;;;;;;;6.45;2.08;;;16.40;66.90;;;;;;6320999;22;20061;-75
2021/05/28 07:43:43;;;;;;;3.90;1.88;;;16.40;66.90;;;;;;6320832;22;20404;-75
2021/05/28 07:46:09;;;;;;;8.75;2.72;;;16.40;66.80;;;;;;6321482;22;20038;-75
2021/05/28 07:48:35;;;;;;;4.47;1.90;;;16.40;66.90;;;;;;6310216;22;20016;-73
2021/05/28 07:51:01;;;;;;;5.57;2.25;;;16.40;66.90;;;;;;6310473;22;20015;-78
2021/05/28 07:53:27;;;;;;;5.65;2.00;;;16.40;66.80;;;;;;6310848;22;20026;-79
2021/05/28 07:55:59;;;;;;;9.27;2.67;;;16.40;66.80;;;;;;6321032;22;20038;-76
2021/05/28 07:58:26;;;;;;;5.82;2.28;;;16.40;67.00;;;;;;6321206;22;20038;-76
2021/05/28 08:00:52;;;;;;;5.43;2.08;;;16.40;67.10;;;;;;6321002;22;20019;-76
2021/05/28 08:03:17;;;;;;;4.85;1.58;;;16.40;67.20;;;;;;6310651;22;20007;-77
2021/05/28 08:05:46;;;;;;;4.63;1.73;;;16.40;67.40;;;;;;6294827;22;20293;-76
2021/05/28 08:08:11;;;;;;;3.78;1.75;;;16.50;67.50;;;;;;6320843;22;20305;-75
2021/05/28 08:10:37;;;;;;;3.78;1.75;;;16.50;67.60;;;;;;6321207;22;20011;-76
2021/05/28 08:13:03;;;;;;;3.30;1.40;;;16.50;67.60;;;;;;6320433;22;20435;-77
2021/05/28 08:15:31;;;;;;;7.57;1.40;;;16.50;67.70;;;;;;6321693;22;20011;-76
2021/05/28 08:17:57;;;;;;;3.85;1.60;;;16.50;67.80;;;;;;6321726;22;20007;-76
2021/05/28 08:20:23;;;;;;;4.38;1.60;;;16.50;67.80;;;;;;6321428;22;20082;-75
2021/05/28 08:22:51;;;;;;;3.38;1.58;;;16.60;67.80;;;;;;6310339;22;20341;-76
2021/05/28 08:25:17;;;;;;;2.63;1.10;;;16.60;67.90;;;;;;6310464;22;20090;-76
2021/05/28 08:27:43;;;;;;;4.32;1.40;;;16.60;67.90;;;;;;6320912;22;20014;-76
2021/05/28 08:30:09;;;;;;;3.97;1.30;;;16.60;67.90;;;;;;6320783;22;20035;-79
2021/05/28 08:32:35;;;;;;;3.13;1.45;;;16.60;67.90;;;;;;6321245;22;20015;-79
2021/05/28 08:35:02;;;;;;;10.82;2.08;;;16.60;67.90;;;;;;6294660;22;20021;-78
2021/05/28 08:37:28;;;;;;;4.18;1.42;;;16.60;67.80;;;;;;6321323;22;20011;-79
2021/05/28 08:39:54;;;;;;;4.50;1.60;;;16.70;68.00;;;;;;6320792;22;20043;-76
2021/05/28 08:42:21;;;;;;;4.72;2.00;;;16.70;68.10;;;;;;6283279;22;20436;-76
2021/05/28 08:44:48;;;;;;;10.80;2.38;;;16.60;68.20;;;;;;6320995;22;20038;-76
2021/05/28 08:47:18;;;;;;;9.00;2.53;;;16.70;68.30;;;;;;6318764;22;20007;-77
2021/05/28 08:50:00;;;;;;;6.97;1.55;;;16.70;68.30;;;;;;6320344;22;20408;-78
2021/05/28 08:52:27;;;;;;;4.47;1.77;;;16.70;68.50;;;;;;6283317;22;20021;-79
2021/05/28 08:54:53;;;;;;;10.20;1.90;;;16.70;68.40;;;;;;6320447;22;20083;-75
2021/05/28 08:57:20;;;;;;;5.30;2.15;;;16.80;67.70;;;;;;6320975;22;20037;-78
2021/05/28 08:59:46;;;;;;;6.00;1.85;;;16.80;66.70;;;;;;6320545;22;20007;-78
2021/05/28 09:02:31;;;;;;;4.38;1.80;;;16.70;66.70;;;;;;6320137;22;20439;-77
2021/05/28 09:05:24;;;;;;;6.00;2.03;;;16.70;65.60;;;;;;6320718;22;20099;-74
2021/05/28 09:07:59;;;;;;;7.88;2.05;;;16.70;65.00;;;;;;6304790;22;20026;-75
2021/05/28 09:10:26;;;;;;;3.28;1.70;;;16.60;64.20;;;;;;6321388;22;20097;-75
2021/05/28 09:12:53;;;;;;;7.88;2.20;;;16.60;64.30;;;;;;6320592;22;20015;-77
2021/05/28 09:15:21;;;;;;;4.93;1.80;;;16.60;64.20;;;;;;6310389;22;20011;-81
2021/05/28 09:18:03;;;;;;;5.72;2.13;;;16.60;64.20;;;;;;6310114;22;20007;-81
2021/05/28 09:20:29;;;;;;;7.63;1.75;;;16.60;64.90;;;;;;6320835;22;20089;-80
2021/05/28 09:23:19;;;;;;;9.18;2.42;;;16.60;64.30;;;;;;6319974;22;20300;-78
2021/05/28 09:26:01;;;;;;;4.47;1.40;;;16.60;64.50;;;;;;6320670;22;20011;-77
2021/05/28 09:28:27;;;;;;;5.35;2.00;;;16.60;64.50;;;;;;6320398;22;20011;-76
2021/05/28 09:31:03;;;;;;;5.15;1.83;;;16.60;64.30;;;;;;6321083;22;20007;-77
2021/05/28 09:33:34;;;;;;;3.60;1.65;;;16.60;64.40;;;;;;6310117;22;20305;-75
2021/05/28 09:36:17;;;;;;;2.90;1.30;;;16.60;64.30;;;;;;6320480;22;20082;-76
2021/05/28 09:39:10;;;;;;;6.25;2.08;;;16.60;64.40;;;;;;6309951;22;20011;-75
2021/05/28 09:41:43;;;;;;;4.68;1.70;;;16.70;64.90;;;;;;6320555;22;20106;-75
2021/05/28 09:44:10;;;;;;;3.33;1.80;;;16.70;64.70;;;;;;6320421;22;20011;-78
2021/05/28 09:46:36;;;;;;;6.72;2.00;;;16.70;64.60;;;;;;6320285;22;20007;-75
2021/05/28 09:49:10;;;;;;;4.88;1.77;;;16.70;64.20;;;;;;6311462;22;20046;-76
2021/05/28 09:51:36;;;;;;;4.50;2.38;;;16.70;64.30;;;;;;6320505;22;20018;-77
2021/05/28 09:54:16;;;;;;;5.55;2.35;;;16.70;64.20;;;;;;6309604;22;20340;-76
2021/05/28 09:56:43;;;;;;;5.43;2.83;;;16.70;64.30;;;;;;6309935;22;20031;-76
2021/05/28 09:59:10;;;;;;;7.40;3.13;;;16.70;64.30;;;;;;6309659;22;20007;-79
2021/05/28 10:01:37;;;;;;;10.98;2.90;;;16.70;64.30;;;;;;6319598;22;20007;-79
2021/05/28 10:04:05;;;;;;;4.35;2.70;;;16.70;64.60;;;;;;6292803;22;20082;-79
2021/05/28 10:06:33;;;;;;;5.35;2.70;;;16.70;65.10;;;;;;6320411;22;20007;-78
2021/05/28 10:09:12;;;;;;;3.83;2.20;;;16.70;65.00;;;;;;6319795;22;20461;-85
2021/05/28 10:11:39;;;;;;;4.90;2.67;;;16.70;64.90;;;;;;6319411;22;20007;-79
2021/05/28 10:14:06;;;;;;;3.90;2.80;;;16.60;64.70;;;;;;6292570;22;20011;-74
2021/05/28 10:16:32;;;;;;;5.47;3.00;;;16.60;65.40;;;;;;6309873;22;20011;-72
2021/05/28 10:19:04;;;;;;;4.70;2.95;;;16.50;64.90;;;;;;6320085;22;20506;-78
2021/05/28 10:22:11;;;;;;;5.55;3.17;;;16.50;65.00;;;;;;6258323;22;20017;-80
2021/05/28 10:24:37;;;;;;;5.82;2.25;;;16.50;65.00;;;;;;6281485;22;20082;-76
2021/05/28 10:27:03;;;;;;;6.43;2.40;;;16.50;65.10;;;;;;6319697;22;20037;-76
2021/05/28 10:29:30;;;;;;;6.00;3.10;;;16.60;65.20;;;;;;6319003;22;20011;-75
2021/05/28 10:32:12;;;;;;;8.35;3.53;;;16.60;65.30;;;;;;6319711;22;20004;-80
2021/05/28 10:35:09;;;;;;;7.15;3.05;;;16.60;65.30;;;;;;6309854;22;20007;-76
2021/05/28 10:37:36;;;;;;;5.65;2.78;;;16.60;65.30;;;;;;6320653;22;20405;-76
2021/05/28 10:40:21;;;;;;;8.77;3.45;;;16.60;65.10;;;;;;6320502;22;20011;-76
2021/05/28 10:43:05;;;;;;;5.75;3.08;;;16.60;64.80;;;;;;6319877;22;20076;-75
2021/05/28 10:45:53;;;;;;;5.95;2.80;;;16.60;65.40;;;;;;6319463;22;20039;-77
2021/05/28 10:48:40;;;;;;;7.20;2.58;;;16.60;65.00;;;;;;6312880;22;20414;-75
2021/05/28 10:51:14;;;;;;;4.53;2.78;;;16.60;65.10;;;;;;6309868;22;20015;-76
2021/05/28 10:54:01;;;;;;;7.35;2.55;;;16.60;65.00;;;;;;6309381;22;20015;-74
2021/05/28 10:56:28;;;;;;;7.15;2.35;;;16.60;65.50;;;;;;6310678;22;20008;-72
2021/05/28 10:58:59;;;;;;;8.82;2.42;;;16.70;65.80;;;;;;6319893;22;20072;-75
2021/05/28 11:01:31;;;;;;;7.35;2.53;;;16.70;66.10;;;;;;6320019;22;20014;-76
2021/05/28 11:03:57;;;;;;;13.82;3.15;;;16.70;66.30;;;;;;6319994;22;20038;-74
2021/05/28 11:06:23;;;;;;;10.82;3.17;;;16.70;66.10;;;;;;6319810;22;20011;-74
2021/05/28 11:08:51;;;;;;;6.63;2.38;;;16.70;66.10;;;;;;6319643;22;20007;-73
2021/05/28 11:11:35;;;;;;;9.30;3.50;;;16.70;66.10;;;;;;6319568;22;20021;-74
2021/05/28 11:14:06;;;;;;;12.73;2.80;;;16.80;66.20;;;;;;6319518;22;20045;-76
2021/05/28 11:16:51;;;;;;;7.32;2.78;;;16.80;66.20;;;;;;6320088;22;20411;-76
2021/05/28 11:19:27;;;;;;;;;;;16.80;66.30;;;;;;6309983;22;20015;-75
2021/05/28 11:22:25;;;;;;;7.70;2.88;;;16.70;66.20;;;;;;6319429;22;20292;-76
2021/05/28 11:24:52;;;;;;;8.38;3.05;;;16.80;66.50;;;;;;6227341;22;20477;-76
2021/05/28 11:27:20;;;;;;;7.78;3.00;;;16.80;66.40;;;;;;6321600;22;20018;-77
2021/05/28 11:29:52;;;;;;;7.97;2.78;;;16.80;66.30;;;;;;6321744;22;20074;-77
2021/05/28 11:32:43;;;;;;;7.40;2.45;;;16.80;66.20;;;;;;6295024;22;20077;-75
2021/05/28 11:35:23;;;;;;;5.45;2.65;;;16.80;66.20;;;;;;6311075;22;20412;-76
2021/05/28 11:37:59;;;;;;;4.82;2.78;;;16.80;66.10;;;;;;6311039;22;20011;-75
2021/05/28 11:40:27;;;;;;;4.68;2.47;;;16.80;66.10;;;;;;6311287;22;20007;-74
2021/05/28 11:43:07;;;;;;;4.82;3.00;;;16.80;66.00;;;;;;6321673;22;20065;-76
2021/05/28 11:45:41;;;;;;;5.07;2.50;;;16.70;65.80;;;;;;6322220;22;20031;-74
2021/05/28 11:48:15;;;;;;;5.55;2.42;;;16.80;65.80;;;;;;6315341;22;20011;-77
2021/05/28 11:50:47;;;;;;;5.97;2.50;;;16.70;65.70;;;;;;6321676;22;20090;-74
2021/05/28 11:53:13;;;;;;;5.25;3.00;;;16.70;65.70;;;;;;6311898;22;20400;-75
2021/05/28 11:55:56;;;;;;;8.35;3.17;;;16.70;65.60;;;;;;6321230;22;20015;-73
2021/05/28 11:58:28;;;;;;;10.05;3.28;;;16.80;65.60;;;;;;6322446;22;20022;-78
2021/05/28 12:00:55;;;;;;;3.85;2.17;;;16.70;65.60;;;;;;6311058;22;20269;-74
2021/05/28 12:03:22;;;;;;;6.15;3.10;;;16.80;65.70;;;;;;6310675;22;20007;-76
2021/05/28 12:05:49;;;;;;;4.88;2.30;;;16.70;65.70;;;;;;6320621;22;20439;-76
2021/05/28 12:08:27;;;;;;;4.68;2.75;;;16.70;65.70;;;;;;6321786;22;20045;-75
2021/05/28 12:10:55;;;;;;;3.25;2.20;;;16.70;65.70;;;;;;6321928;22;20357;-77
2021/05/28 12:13:25;;;;;;;4.00;2.58;;;16.70;65.70;;;;;;6321125;22;20025;-74
2021/05/28 12:15:56;;;;;;;5.72;2.42;;;16.80;65.80;;;;;;6320954;22;20039;-75
2021/05/28 12:18:24;;;;;;;5.45;2.85;;;16.80;65.80;;;;;;6321144;22;20022;-77
2021/05/28 12:20:54;;;;;;;4.80;2.53;;;16.80;65.80;;;;;;6321471;22;20019;-76
2021/05/28 12:23:26;;;;;;;3.97;2.38;;;16.80;65.70;;;;;;6321175;22;20103;-76
2021/05/28 12:25:56;;;;;;;4.03;2.60;;;16.80;65.60;;;;;;6321768;22;20042;-75
2021/05/28 12:28:30;;;;;;;6.65;2.95;;;16.80;65.60;;;;;;6321058;22;20007;-76
2021/05/28 12:30:58;;;;;;;3.53;2.42;;;16.80;65.70;;;;;;6321389;22;20011;-75
2021/05/28 12:33:35;;;;;;;4.22;3.30;;;16.90;65.70;;;;;;6321742;22;20015;-76
2021/05/28 12:36:05;;;;;;;6.57;2.80;;;16.90;65.60;;;;;;6310005;22;20311;-77
2021/05/28 12:38:35;;;;;;;3.58;2.60;;;16.80;65.50;;;;;;6321370;22;20015;-75
2021/05/28 12:41:02;;;;;;;3.58;2.33;;;16.90;65.60;;;;;;6321365;22;20086;-75
2021/05/28 12:43:30;;;;;;;3.33;2.17;;;16.80;65.50;;;;;;6320605;22;20015;-77
2021/05/28 12:45:57;;;;;;;4.95;3.20;;;16.80;65.50;;;;;;6321012;22;20011;-75
2021/05/28 12:48:46;;;;;;;3.70;2.75;;;16.80;65.40;;;;;;6313457;22;20076;-77
2021/05/28 12:51:17;;;;;;;4.63;2.75;;;16.80;65.30;;;;;;6320935;22;20072;-74
2021/05/28 12:53:44;;;;;;;5.68;2.97;;;16.80;65.40;;;;;;6321248;22;20018;-76